STE weather

Stevens Point Municipal Airport
Stevens Point, Wisconsin, United States

Public forecast

Using degrees Fahrenheit for public forecast. Weather courtesy of forecast.io.

METAR (pilot weather report)

Retrieved 2019/08/19 22:35 UTC (0 seconds ago):

KSTE 192235Z AUTO 28004KT 10SM CLR 24/11 A3002 RMK AO2 T02400109

TAF (pilot weather forecast)

Closest forecast is Central Wisconsin Airport, 15.1 nm (28.0 km) NNW. Retrieved 2019/08/19 18:22 UTC (4 hours ago):

TAF KCWA 191720Z 1918/2018 22007KT P6SM SKC FM200100 VRB03KT P6SM SKC TEMPO 2008/2012 1SM BR FM201500 19007KT P6SM BKN120